TimeAST,TemperatureF,Dew PointF,Humidity,Sea Level PressureIn,VisibilityMPH,Wind Direction,Wind SpeedMPH,Gust SpeedMPH,PrecipitationIn,Events,Conditions,WindDirDegrees,DateUTC
3:00 AM,75.2,69.8,83,29.83,6.2,Calm,Calm,-,N/A,,Scattered Clouds,0,2013-08-09 07:00:00
5:00 AM,73.4,69.8,88,29.86,6.2,ENE,5.8,-,N/A,,Partly Cloudy,60,2013-08-09 09:00:00
6:00 AM,75.2,69.8,83,29.86,6.2,NE,3.5,-,N/A,,Partly Cloudy,40,2013-08-09 10:00:00
7:00 AM,77.0,71.6,83,29.86,6.2,ENE,3.5,-,N/A,,Partly Cloudy,60,2013-08-09 11:00:00
8:00 AM,82.4,75.2,79,29.89,6.2,East,6.9,-,N/A,,Scattered Clouds,90,2013-08-09 12:00:00
9:00 AM,84.2,73.4,70,29.89,6.2,ESE,10.4,-,N/A,,Scattered Clouds,110,2013-08-09 13:00:00
10:00 AM,84.2,73.4,70,29.89,6.2,ESE,10.4,-,N/A,,Mostly Cloudy,110,2013-08-09 14:00:00
11:00 AM,86.0,73.4,66,29.89,6.2,ESE,10.4,-,N/A,,Mostly Cloudy,120,2013-08-09 15:00:00
12:00 PM,86.0,73.4,66,29.89,6.2,ESE,11.5,-,N/A,,Mostly Cloudy,120,2013-08-09 16:00:00
1:00 PM,86.0,71.6,62,29.89,6.2,ESE,13.8,-,N/A,,Mostly Cloudy,120,2013-08-09 17:00:00
2:00 PM,86.0,77.0,74,29.86,6.2,East,11.5,-,N/A,,Mostly Cloudy,90,2013-08-09 18:00:00
3:00 PM,80.6,75.2,84,29.86,6.2,SE,5.8,-,N/A,,Mostly Cloudy,140,2013-08-09 19:00:00
4:00 PM,84.2,73.4,70,29.83,6.2,East,5.8,-,N/A,,Mostly Cloudy,100,2013-08-09 20:00:00
5:00 PM,82.4,73.4,74,29.86,6.2,Calm,Calm,-,N/A,,Mostly Cloudy,0,2013-08-09 21:00:00
6:00 PM,80.6,73.4,79,29.86,6.2,NNE,6.9,-,N/A,,Mostly Cloudy,30,2013-08-09 22:00:00
7:00 PM,78.8,71.6,78,29.86,6.2,East,5.8,-,N/A,,Mostly Cloudy,80,2013-08-09 23:00:00
8:00 PM,80.6,77.0,89,29.86,6.2,ENE,5.8,-,N/A,,Mostly Cloudy,70,2013-08-10 00:00:00
9:00 PM,80.6,73.4,79,29.89,6.2,ENE,5.8,-,N/A,,Mostly Cloudy,70,2013-08-10 01:00:00
10:00 PM,78.8,73.4,83,29.89,6.2,East,5.8,-,N/A,,Mostly Cloudy,80,2013-08-10 02:00:00
11:00 PM,78.8,73.4,83,29.92,6.2,East,11.5,-,N/A,,Mostly Cloudy,100,2013-08-10 03:00:00